createdAt,value
2023-08-08T00:01:50.519Z,57.79
2023-08-08T00:04:18.860Z,57.63
2023-08-08T00:06:49.452Z,57.79
2023-08-08T00:09:18.807Z,57.66
2023-08-08T00:11:46.843Z,57.95
2023-08-08T00:14:14.749Z,57.67
2023-08-08T00:16:45.291Z,57.64
2023-08-08T00:19:13.290Z,57.57
2023-08-08T00:21:41.210Z,57.76
2023-08-08T00:24:09.127Z,57.62
2023-08-08T00:26:38.531Z,57.55
2023-08-08T00:29:07.299Z,57.52
2023-08-08T00:31:35.343Z,57.77
2023-08-08T00:34:03.236Z,57.68
2023-08-08T00:36:31.406Z,57.71
2023-08-08T00:38:59.410Z,57.83
2023-08-08T00:41:27.821Z,57.76
2023-08-08T00:43:57.216Z,57.86
2023-08-08T00:46:25.988Z,57.77
2023-08-08T00:48:57.395Z,57.68
2023-08-08T00:51:26.594Z,58.03
2023-08-08T00:53:55.432Z,57.71
2023-08-08T00:56:23.860Z,57.92
2023-08-08T00:58:52.338Z,57.65
2023-08-08T01:01:21.898Z,57.85
2023-08-08T01:03:50.895Z,57.96
2023-08-08T01:06:25.326Z,57.90
2023-08-08T01:08:59.707Z,57.86
2023-08-08T01:11:30.424Z,58.58
2023-08-08T01:13:59.008Z,58.58
2023-08-08T01:16:29.064Z,58.31
2023-08-08T01:18:58.374Z,58.28
2023-08-08T01:21:29.711Z,58.55
2023-08-08T01:24:03.399Z,58.81
2023-08-08T01:26:35.635Z,58.60
2023-08-08T01:29:03.435Z,58.69
2023-08-08T01:31:31.384Z,58.81
2023-08-08T01:33:59.427Z,59.21
2023-08-08T01:36:32.783Z,59.22
2023-08-08T01:39:05.512Z,58.81
2023-08-08T01:41:36.027Z,58.88
2023-08-08T01:44:04.783Z,59.28
2023-08-08T01:46:33.468Z,58.94
2023-08-08T01:49:01.525Z,59.40
2023-08-08T01:51:29.668Z,59.31
2023-08-08T01:53:58.132Z,59.31
2023-08-08T01:56:26.168Z,59.48
2023-08-08T01:58:55.474Z,59.29
2023-08-08T02:01:23.534Z,59.23
2023-08-08T02:03:51.669Z,59.13
2023-08-08T02:06:22.046Z,59.20
2023-08-08T02:08:50.061Z,59.39
2023-08-08T02:11:20.054Z,59.53
2023-08-08T02:13:47.981Z,59.22
2023-08-08T02:16:17.459Z,59.41
2023-08-08T02:18:45.538Z,59.41
2023-08-08T02:21:13.672Z,59.50
2023-08-08T02:23:41.668Z,59.48
2023-08-08T02:26:09.659Z,59.52
2023-08-08T02:28:37.918Z,59.61
2023-08-08T02:31:05.912Z,59.53
2023-08-08T02:33:35.251Z,59.23
2023-08-08T02:36:03.300Z,59.43
2023-08-08T02:38:33.498Z,59.33
2023-08-08T02:41:01.492Z,59.47
2023-08-08T02:43:29.508Z,59.34
2023-08-08T02:45:57.433Z,59.44
2023-08-08T02:48:25.567Z,59.36
2023-08-08T02:50:55.100Z,59.15
2023-08-08T02:53:23.195Z,59.23
2023-08-08T02:55:51.178Z,59.40
2023-08-08T02:58:19.157Z,59.28
2023-08-08T03:00:47.309Z,59.06
2023-08-08T03:03:15.519Z,59.19
2023-08-08T03:05:46.149Z,59.25
2023-08-08T03:08:15.504Z,59.05
2023-08-08T03:10:46.063Z,59.10
2023-08-08T03:13:14.042Z,59.01
2023-08-08T03:15:42.034Z,58.85
2023-08-08T03:18:10.119Z,59.14
2023-08-08T03:20:41.295Z,59.04
2023-08-08T03:23:09.354Z,58.80
2023-08-08T03:25:38.641Z,58.91
2023-08-08T03:28:06.810Z,59.08
2023-08-08T03:30:34.919Z,58.77
2023-08-08T03:33:02.977Z,58.76
2023-08-08T03:35:31.291Z,58.91
2023-08-08T03:37:59.331Z,58.76
2023-08-08T03:40:27.376Z,58.62
2023-08-08T03:42:56.669Z,58.72
2023-08-08T03:45:24.753Z,58.71
2023-08-08T03:47:52.848Z,58.88
2023-08-08T03:50:21.020Z,58.82
2023-08-08T03:52:49.074Z,58.81
2023-08-08T03:55:17.128Z,58.78
2023-08-08T03:57:45.167Z,58.98
2023-08-08T04:00:15.175Z,59.05
2023-08-08T04:02:43.326Z,58.78
2023-08-08T04:05:11.327Z,58.75
2023-08-08T04:07:39.293Z,58.87
2023-08-08T04:10:08.511Z,58.92
2023-08-08T04:12:36.516Z,59.07
2023-08-08T04:15:04.761Z,59.05
2023-08-08T04:17:34.173Z,58.98
2023-08-08T04:20:02.288Z,58.84
2023-08-08T04:22:30.255Z,58.91
2023-08-08T04:24:58.537Z,58.92
2023-08-08T04:27:30.253Z,58.87
2023-08-08T04:29:58.287Z,58.69
2023-08-08T04:32:26.223Z,59.04
2023-08-08T04:34:55.521Z,58.66
2023-08-08T04:37:26.120Z,58.98
2023-08-08T04:39:54.118Z,58.96
2023-08-08T04:42:22.183Z,58.69
2023-08-08T04:44:50.230Z,58.72
2023-08-08T04:47:18.344Z,58.70
2023-08-08T04:49:46.358Z,58.87
2023-08-08T04:52:18.614Z,58.77
2023-08-08T04:54:49.519Z,58.84
2023-08-08T04:57:17.524Z,58.69
2023-08-08T04:59:48.724Z,58.78
2023-08-08T05:02:17.537Z,58.58
2023-08-08T05:04:48.774Z,58.58
2023-08-08T05:07:20.139Z,58.85
2023-08-08T05:09:51.013Z,58.85
2023-08-08T05:12:19.015Z,58.58
2023-08-08T05:14:47.099Z,58.84
2023-08-08T05:17:15.047Z,58.87
2023-08-08T05:19:42.972Z,58.61
2023-08-08T05:22:10.969Z,58.78
2023-08-08T05:24:40.300Z,58.75
2023-08-08T05:27:08.509Z,58.70
2023-08-08T05:29:39.208Z,58.75
2023-08-08T05:32:08.735Z,58.68
2023-08-08T05:34:37.160Z,58.67
2023-08-08T05:37:15.699Z,58.88
2023-08-08T05:39:46.525Z,58.87
2023-08-08T05:42:14.516Z,58.81
2023-08-08T05:44:45.522Z,58.58
2023-08-08T05:47:13.616Z,58.65
2023-08-08T05:49:44.529Z,58.70
2023-08-08T05:52:15.241Z,58.46
2023-08-08T05:54:43.300Z,58.59
2023-08-08T05:57:12.677Z,58.34
2023-08-08T05:59:40.664Z,58.45
2023-08-08T06:02:08.701Z,58.35
2023-08-08T06:04:36.755Z,58.55
2023-08-08T06:07:06.288Z,58.41
2023-08-08T06:09:35.553Z,58.31
2023-08-08T06:12:03.716Z,58.39
2023-08-08T06:14:33.530Z,58.40
2023-08-08T06:17:01.991Z,58.33
2023-08-08T06:19:29.933Z,58.28
2023-08-08T06:21:57.976Z,58.40
2023-08-08T06:24:25.997Z,58.38
2023-08-08T06:26:54.042Z,58.58
2023-08-08T06:29:22.429Z,58.33
2023-08-08T06:31:51.856Z,58.37
2023-08-08T06:34:22.744Z,58.27
2023-08-08T06:36:50.901Z,58.65
2023-08-08T06:39:22.889Z,58.46
2023-08-08T06:41:50.895Z,58.51
2023-08-08T06:44:21.782Z,58.42
2023-08-08T06:46:51.188Z,58.57
2023-08-08T06:49:19.192Z,58.48
2023-08-08T06:51:47.178Z,58.44
2023-08-08T06:54:15.203Z,58.39
2023-08-08T06:56:43.182Z,58.40
2023-08-08T06:59:11.111Z,58.46
2023-08-08T07:01:39.125Z,58.60
2023-08-08T07:04:08.481Z,58.76
2023-08-08T07:06:37.337Z,58.83
2023-08-08T07:09:05.468Z,58.92
2023-08-08T07:11:33.553Z,59.15
2023-08-08T07:14:01.678Z,59.58
2023-08-08T07:16:29.576Z,59.64
2023-08-08T07:18:57.575Z,59.97
2023-08-08T07:21:30.582Z,59.81
2023-08-08T07:23:58.933Z,60.04
2023-08-08T07:26:26.974Z,59.93
2023-08-08T07:28:54.942Z,59.65
2023-08-08T07:31:22.987Z,59.60
2023-08-08T07:33:50.979Z,59.50
2023-08-08T07:36:19.054Z,59.58
2023-08-08T07:38:48.380Z,59.49
2023-08-08T07:41:16.453Z,59.29
2023-08-08T07:43:44.417Z,59.42
2023-08-08T07:46:12.690Z,59.53
2023-08-08T07:48:41.518Z,59.35
2023-08-08T07:51:09.548Z,58.62
2023-08-08T07:53:37.549Z,58.51
2023-08-08T07:56:06.930Z,58.26
2023-08-08T07:58:35.099Z,57.90
2023-08-08T08:01:08.192Z,58.01
2023-08-08T08:03:36.669Z,57.90
2023-08-08T08:06:05.037Z,57.53
2023-08-08T08:08:33.035Z,57.42
2023-08-08T08:11:01.378Z,57.60
2023-08-08T08:13:30.845Z,57.33
2023-08-08T08:15:59.230Z,57.16
2023-08-08T08:18:27.224Z,57.29
2023-08-08T08:20:55.485Z,57.17
2023-08-08T08:23:23.465Z,56.56
2023-08-08T08:25:51.652Z,56.39
2023-08-08T08:28:19.796Z,56.05
2023-08-08T08:30:49.229Z,56.64
2023-08-08T08:33:17.316Z,56.72
2023-08-08T08:35:46.674Z,56.45
2023-08-08T08:38:14.709Z,55.68
2023-08-08T08:40:45.500Z,54.37
2023-08-08T08:43:13.873Z,53.65
2023-08-08T08:45:44.978Z,54.27
2023-08-08T08:48:17.625Z,54.40
2023-08-08T08:50:49.546Z,54.42
2023-08-08T08:53:18.873Z,54.17
2023-08-08T08:55:47.018Z,53.62
2023-08-08T08:58:17.721Z,53.87
2023-08-08T09:00:46.946Z,53.79
2023-08-08T09:03:16.826Z,53.75
2023-08-08T09:05:46.108Z,53.16
2023-08-08T09:08:14.199Z,53.09
2023-08-08T09:10:42.280Z,53.73
2023-08-08T09:13:10.760Z,53.19
2023-08-08T09:15:38.777Z,52.29
2023-08-08T09:18:10.247Z,51.78
2023-08-08T09:20:39.666Z,51.84
2023-08-08T09:23:07.676Z,52.08
2023-08-08T09:25:35.846Z,51.97
2023-08-08T09:28:03.914Z,51.61
2023-08-08T09:30:34.182Z,51.46
2023-08-08T09:33:02.943Z,51.37
2023-08-08T09:35:35.903Z,51.49
2023-08-08T09:38:08.648Z,50.93
2023-08-08T09:40:37.384Z,50.66
2023-08-08T09:43:09.825Z,49.56
2023-08-08T09:45:38.956Z,48.97
2023-08-08T09:48:08.496Z,48.60
2023-08-08T09:50:37.692Z,49.30
2023-08-08T09:53:06.906Z,49.60
2023-08-08T09:55:37.298Z,50.10
2023-08-08T09:58:07.345Z,49.88
2023-08-08T10:00:36.010Z,49.92
2023-08-08T10:03:04.372Z,50.22
2023-08-08T10:05:32.892Z,50.29
2023-08-08T10:08:00.983Z,50.85
2023-08-08T10:10:29.721Z,50.66
2023-08-08T10:12:59.690Z,50.34
2023-08-08T10:15:28.529Z,50.28
2023-08-08T10:17:58.277Z,50.48
2023-08-08T10:20:27.163Z,50.47
2023-08-08T10:22:59.116Z,50.56
2023-08-08T10:25:29.690Z,50.57
2023-08-08T10:28:23.917Z,50.77
2023-08-08T10:30:56.144Z,51.24
2023-08-08T10:33:25.581Z,51.04
2023-08-08T10:36:00.107Z,50.97
2023-08-08T10:38:29.777Z,50.78
2023-08-08T10:40:59.656Z,50.73
2023-08-08T10:43:30.174Z,50.61
2023-08-08T10:46:12.963Z,50.21
2023-08-08T10:48:54.922Z,50.07
2023-08-08T10:51:33.795Z,50.29
2023-08-08T10:54:06.019Z,50.60
2023-08-08T10:56:35.475Z,50.32
2023-08-08T10:59:15.753Z,49.98
2023-08-08T11:01:44.803Z,50.13
2023-08-08T11:04:13.771Z,50.04
2023-08-08T11:06:42.227Z,50.30
2023-08-08T11:09:11.032Z,50.36
2023-08-08T11:11:40.212Z,50.19
2023-08-08T11:14:14.112Z,50.06
2023-08-08T11:16:42.524Z,50.24
2023-08-08T11:19:11.344Z,50.23
2023-08-08T11:21:42.105Z,50.09
2023-08-08T11:24:11.282Z,50.62
2023-08-08T11:26:41.409Z,50.58
2023-08-08T11:29:09.803Z,50.54
2023-08-08T11:31:39.923Z,50.00
2023-08-08T11:34:08.148Z,49.65
2023-08-08T11:36:37.396Z,49.33
2023-08-08T11:39:08.883Z,49.64
2023-08-08T11:41:38.206Z,49.52
2023-08-08T11:44:07.141Z,49.57
2023-08-08T11:46:35.160Z,48.85
2023-08-08T11:49:08.518Z,48.00
2023-08-08T11:51:37.040Z,47.75
2023-08-08T11:54:06.010Z,47.82
2023-08-08T11:56:36.332Z,48.51
2023-08-08T11:59:04.851Z,49.11
2023-08-08T12:01:35.002Z,49.30
2023-08-08T12:04:10.614Z,49.61
2023-08-08T12:06:40.207Z,49.11
2023-08-08T12:09:08.422Z,48.58
2023-08-08T12:11:38.334Z,48.45
2023-08-08T12:14:06.715Z,49.30
2023-08-08T12:16:35.009Z,49.36
2023-08-08T12:19:04.293Z,49.07
2023-08-08T12:21:36.936Z,48.79
2023-08-08T12:24:05.352Z,49.08
2023-08-08T12:26:34.380Z,48.84
2023-08-08T12:29:02.423Z,49.00
2023-08-08T12:31:30.409Z,49.16
2023-08-08T12:33:58.366Z,48.81
2023-08-08T12:36:26.378Z,49.29
2023-08-08T12:38:55.707Z,49.10
2023-08-08T12:41:25.876Z,48.59
2023-08-08T12:43:56.505Z,48.44
2023-08-08T12:46:24.561Z,48.63
2023-08-08T12:48:52.565Z,48.59
2023-08-08T12:51:20.640Z,48.69
2023-08-08T12:53:48.640Z,48.56
2023-08-08T12:56:17.980Z,48.64
2023-08-08T12:58:48.232Z,49.18
2023-08-08T13:01:18.907Z,49.42
2023-08-08T13:03:51.529Z,48.85
2023-08-08T13:06:31.289Z,49.29
2023-08-08T13:08:59.299Z,49.43
2023-08-08T13:11:28.914Z,49.49
2023-08-08T13:13:56.950Z,48.56
2023-08-08T13:16:24.994Z,49.09
2023-08-08T13:18:53.071Z,49.24
2023-08-08T13:21:21.155Z,49.44
2023-08-08T13:23:49.205Z,49.55
2023-08-08T13:26:18.659Z,48.85
2023-08-08T13:28:49.403Z,49.06
2023-08-08T13:31:17.608Z,48.97
2023-08-08T13:33:45.569Z,48.86
2023-08-08T13:36:16.126Z,49.02
2023-08-08T13:38:44.134Z,49.27
2023-08-08T13:41:12.176Z,49.11
2023-08-08T13:43:40.262Z,49.17
2023-08-08T13:46:10.918Z,48.75
2023-08-08T13:48:39.121Z,49.24
2023-08-08T13:51:07.073Z,49.01
2023-08-08T13:53:35.344Z,49.42
2023-08-08T13:56:03.320Z,49.23
2023-08-08T13:58:31.430Z,49.32
2023-08-08T14:00:59.429Z,49.61
2023-08-08T14:03:28.951Z,49.18
2023-08-08T14:05:57.045Z,48.85
2023-08-08T14:08:25.029Z,49.05
2023-08-08T14:10:52.980Z,48.89
2023-08-08T14:13:22.727Z,49.52
2023-08-08T14:15:52.874Z,49.41
2023-08-08T14:18:21.502Z,49.68
2023-08-08T14:20:50.808Z,49.79
2023-08-08T14:23:18.799Z,49.82
2023-08-08T14:25:49.457Z,49.72
2023-08-08T14:28:17.456Z,49.48
2023-08-08T14:30:45.458Z,49.94
2023-08-08T14:33:17.125Z,50.26
2023-08-08T14:35:45.520Z,50.08
2023-08-08T14:38:14.939Z,50.39
2023-08-08T14:40:45.577Z,49.43
2023-08-08T14:43:13.788Z,49.32
2023-08-08T14:45:42.114Z,49.36
2023-08-08T14:48:10.135Z,49.42
2023-08-08T14:50:38.125Z,49.46
2023-08-08T14:53:06.997Z,49.29
2023-08-08T14:55:38.600Z,49.81
2023-08-08T14:58:09.272Z,49.37
2023-08-08T15:00:37.339Z,49.06
2023-08-08T15:03:06.942Z,49.32
2023-08-08T15:05:38.355Z,49.25
2023-08-08T15:08:06.503Z,49.21
2023-08-08T15:10:36.012Z,49.59
2023-08-08T15:13:05.604Z,49.73
2023-08-08T15:15:33.952Z,49.30
2023-08-08T15:18:02.036Z,48.89
2023-08-08T15:20:30.093Z,49.32
2023-08-08T15:22:58.060Z,49.40
2023-08-08T15:25:26.053Z,49.57
2023-08-08T15:27:54.061Z,49.47
2023-08-08T15:30:23.583Z,49.41
2023-08-08T15:32:51.602Z,49.29
2023-08-08T15:35:19.727Z,49.20
2023-08-08T15:38:15.683Z,49.28
2023-08-08T15:40:44.066Z,49.22
2023-08-08T15:43:12.065Z,49.09
2023-08-08T15:45:41.566Z,49.56
2023-08-08T15:48:09.640Z,49.46
2023-08-08T15:50:37.801Z,49.45
2023-08-08T15:53:06.114Z,48.81
2023-08-08T15:55:34.354Z,49.13
2023-08-08T15:58:02.895Z,50.01
2023-08-08T16:00:33.492Z,51.23
2023-08-08T16:03:02.929Z,51.50
2023-08-08T16:05:31.337Z,51.27
2023-08-08T16:07:59.274Z,51.13
2023-08-08T16:10:27.249Z,51.21
2023-08-08T16:12:55.379Z,50.92
2023-08-08T16:15:25.237Z,50.71
2023-08-08T16:17:53.262Z,50.88
2023-08-08T16:20:24.056Z,50.91
2023-08-08T16:22:52.165Z,50.82
2023-08-08T16:25:20.340Z,50.70
2023-08-08T16:27:50.936Z,50.49
2023-08-08T16:30:19.066Z,50.24
2023-08-08T16:32:47.039Z,50.67
2023-08-08T16:35:15.287Z,50.52
2023-08-08T16:37:44.707Z,50.69
2023-08-08T16:40:12.950Z,51.19
2023-08-08T16:42:40.920Z,50.96
2023-08-08T16:45:09.579Z,51.08
2023-08-08T16:47:38.218Z,50.99
2023-08-08T16:50:07.233Z,51.25
2023-08-08T16:52:35.471Z,51.21
2023-08-08T16:55:05.721Z,51.51
2023-08-08T16:57:33.692Z,51.55
2023-08-08T17:00:02.484Z,51.40
2023-08-08T17:02:31.142Z,51.53
2023-08-08T17:04:59.172Z,51.66
2023-08-08T17:07:27.105Z,51.62
2023-08-08T17:09:55.332Z,51.21
2023-08-08T17:12:24.755Z,51.78
2023-08-08T17:14:53.018Z,51.52
2023-08-08T17:17:21.586Z,51.56
2023-08-08T17:19:49.579Z,51.62
2023-08-08T17:22:17.511Z,51.69
2023-08-08T17:24:45.490Z,51.78
2023-08-08T17:27:13.543Z,51.77
2023-08-08T17:29:42.917Z,51.74
2023-08-08T17:32:11.472Z,51.66
2023-08-08T17:34:39.509Z,51.84
2023-08-08T17:37:07.467Z,51.66
2023-08-08T17:39:35.530Z,51.88
2023-08-08T17:42:03.889Z,51.97
2023-08-08T17:44:32.643Z,52.16
2023-08-08T17:47:04.547Z,52.21
2023-08-08T17:49:32.608Z,52.07
2023-08-08T17:52:00.925Z,52.47
2023-08-08T17:54:29.086Z,52.75
2023-08-08T17:56:59.416Z,52.78
2023-08-08T17:59:30.774Z,52.77
2023-08-08T18:01:59.622Z,52.59
2023-08-08T18:04:29.365Z,52.58
2023-08-08T18:07:00.167Z,52.89
2023-08-08T18:09:29.120Z,53.08
2023-08-08T18:11:59.182Z,53.18
2023-08-08T18:14:30.263Z,53.26
2023-08-08T18:17:08.065Z,53.44
2023-08-08T18:19:37.638Z,53.48
2023-08-08T18:22:07.063Z,53.62
2023-08-08T18:24:37.606Z,53.43
2023-08-08T18:27:05.710Z,53.67
2023-08-08T18:29:33.664Z,53.64
2023-08-08T18:32:02.494Z,53.73
2023-08-08T18:34:30.891Z,53.83
2023-08-08T18:37:00.262Z,54.09
2023-08-08T18:39:28.432Z,53.99
2023-08-08T18:41:59.492Z,54.13
2023-08-08T18:44:27.797Z,54.26
2023-08-08T18:46:55.824Z,54.12
2023-08-08T18:49:23.982Z,54.33
2023-08-08T18:51:52.210Z,54.50
2023-08-08T18:54:21.571Z,54.31
2023-08-08T18:56:49.539Z,54.71
2023-08-08T18:59:17.649Z,54.77
2023-08-08T19:01:45.678Z,54.84
2023-08-08T19:04:13.749Z,54.95
2023-08-08T19:06:41.834Z,54.78
2023-08-08T19:09:10.054Z,54.87
2023-08-08T19:11:42.029Z,55.02
2023-08-08T19:14:10.002Z,55.10
2023-08-08T19:16:38.224Z,55.51
2023-08-08T19:19:06.644Z,55.32
2023-08-08T19:21:34.652Z,55.46
2023-08-08T19:24:02.687Z,55.59
2023-08-08T19:26:34.669Z,55.58
2023-08-08T19:29:04.502Z,55.51
2023-08-08T19:31:32.439Z,55.52
2023-08-08T19:34:06.901Z,56.03
2023-08-08T19:36:36.508Z,56.10
2023-08-08T19:39:07.615Z,55.89
2023-08-08T19:41:38.416Z,56.40
2023-08-08T19:44:10.613Z,56.16
2023-08-08T19:46:38.647Z,56.22
2023-08-08T19:49:07.819Z,56.16
2023-08-08T19:51:38.842Z,56.46
2023-08-08T19:54:06.991Z,56.62
2023-08-08T19:56:35.066Z,56.37
2023-08-08T19:59:03.095Z,56.76
2023-08-08T20:01:32.594Z,56.58
2023-08-08T20:04:00.594Z,56.63
2023-08-08T20:06:31.467Z,56.86
2023-08-08T20:08:59.484Z,56.91
2023-08-08T20:11:27.920Z,56.98
2023-08-08T20:13:55.963Z,56.79
2023-08-08T20:16:26.304Z,56.86
2023-08-08T20:18:55.779Z,57.23
2023-08-08T20:21:23.734Z,57.19
2023-08-08T20:23:51.846Z,57.35
2023-08-08T20:26:19.804Z,57.29
2023-08-08T20:28:47.795Z,57.73
2023-08-08T20:31:15.849Z,57.61
2023-08-08T20:33:46.258Z,58.00
2023-08-08T20:36:16.171Z,58.22
2023-08-08T20:38:44.116Z,58.13
2023-08-08T20:41:12.196Z,58.21
2023-08-08T20:43:41.446Z,58.03
2023-08-08T20:46:11.921Z,58.07
2023-08-08T20:48:40.145Z,58.20
2023-08-08T20:51:08.115Z,58.29
2023-08-08T20:53:37.492Z,58.34
2023-08-08T20:56:08.073Z,58.41
2023-08-08T20:58:38.683Z,58.46
2023-08-08T21:01:06.834Z,58.73
2023-08-08T21:03:34.948Z,58.51
2023-08-08T21:06:03.016Z,58.57
2023-08-08T21:08:35.465Z,58.67
2023-08-08T21:11:06.561Z,58.61
2023-08-08T21:13:34.684Z,58.97
2023-08-08T21:16:02.663Z,58.42
2023-08-08T21:18:30.693Z,58.49
2023-08-08T21:20:58.739Z,58.91
2023-08-08T21:23:29.338Z,59.11
2023-08-08T21:25:57.300Z,59.12
2023-08-08T21:28:30.537Z,59.41
2023-08-08T21:30:58.712Z,59.41
2023-08-08T21:33:26.764Z,59.46
2023-08-08T21:35:54.793Z,59.39
2023-08-08T21:38:22.821Z,59.51
2023-08-08T21:40:50.810Z,59.20
2023-08-08T21:43:18.846Z,59.52
2023-08-08T21:45:48.200Z,59.32
2023-08-08T21:48:16.225Z,59.41
2023-08-08T21:50:44.322Z,59.49
2023-08-08T21:53:12.309Z,59.33
2023-08-08T21:55:40.307Z,59.47
2023-08-08T21:58:08.522Z,59.71
2023-08-08T22:00:36.452Z,59.52
2023-08-08T22:03:06.185Z,59.57
2023-08-08T22:05:36.250Z,59.80
2023-08-08T22:08:04.771Z,59.61
2023-08-08T22:10:34.659Z,59.74
2023-08-08T22:13:02.891Z,59.87
2023-08-08T22:15:34.080Z,60.03
2023-08-08T22:18:13.538Z,59.79
2023-08-08T22:20:45.621Z,60.06
2023-08-08T22:23:20.630Z,59.81
2023-08-08T22:25:50.697Z,59.74
2023-08-08T22:28:18.950Z,59.93
2023-08-08T22:30:52.887Z,60.05
2023-08-08T22:33:22.809Z,59.84
2023-08-08T22:35:50.841Z,59.88
2023-08-08T22:38:19.105Z,59.83
2023-08-08T22:40:48.137Z,59.72
2023-08-08T22:43:16.456Z,59.95
2023-08-08T22:45:44.428Z,59.95
2023-08-08T22:48:12.404Z,59.88
2023-08-08T22:50:43.841Z,60.09
2023-08-08T22:53:14.508Z,60.15
2023-08-08T22:55:42.517Z,60.04
2023-08-08T22:58:11.754Z,60.08
2023-08-08T23:00:39.838Z,59.86
2023-08-08T23:03:08.652Z,59.87
2023-08-08T23:05:36.816Z,59.78
2023-08-08T23:08:06.938Z,59.99
2023-08-08T23:10:37.769Z,59.93
2023-08-08T23:13:05.844Z,59.91
2023-08-08T23:15:33.779Z,59.88
2023-08-08T23:18:01.809Z,59.90
2023-08-08T23:20:32.678Z,59.70
2023-08-08T23:23:00.663Z,59.59
2023-08-08T23:25:29.979Z,59.77
2023-08-08T23:27:57.960Z,59.68
2023-08-08T23:30:26.759Z,60.43
2023-08-08T23:32:55.278Z,60.50
2023-08-08T23:35:23.886Z,60.48
2023-08-08T23:37:52.284Z,60.29
2023-08-08T23:40:20.385Z,60.29
2023-08-08T23:42:49.753Z,60.57
2023-08-08T23:45:17.866Z,60.44
2023-08-08T23:47:45.920Z,60.77
2023-08-08T23:50:16.993Z,60.63
2023-08-08T23:52:45.062Z,60.82
2023-08-08T23:55:13.161Z,60.75
2023-08-08T23:57:41.094Z,60.85
